createdAt,value
2023-05-01T00:01:00.068Z,5.38
2023-05-01T00:03:27.612Z,6.55
2023-05-01T00:06:01.584Z,4.72
2023-05-01T00:08:28.919Z,6.68
2023-05-01T00:10:56.128Z,4.53
2023-05-01T00:13:24.491Z,6.60
2023-05-01T00:15:52.519Z,7.03
2023-05-01T00:18:19.731Z,5.10
2023-05-01T00:20:46.794Z,7.45
2023-05-01T00:23:13.943Z,6.75
2023-05-01T00:25:40.927Z,6.07
2023-05-01T00:28:08.224Z,7.80
2023-05-01T00:30:35.653Z,6.97
2023-05-01T00:33:03.060Z,7.55
2023-05-01T00:35:30.974Z,6.10
2023-05-01T00:37:58.415Z,5.00
2023-05-01T00:40:25.746Z,4.80
2023-05-01T00:42:52.754Z,4.00
2023-05-01T00:45:20.015Z,5.97
2023-05-01T00:47:47.979Z,6.28
2023-05-01T00:50:15.129Z,5.97
2023-05-01T00:52:42.568Z,5.00
2023-05-01T00:55:09.803Z,4.72
2023-05-01T00:57:37.189Z,6.65
2023-05-01T01:00:05.438Z,4.60
2023-05-01T01:02:32.947Z,5.38
2023-05-01T01:05:00.275Z,5.80
2023-05-01T01:07:58.183Z,4.53
2023-05-01T01:10:41.455Z,5.03
2023-05-01T01:13:19.305Z,5.22
2023-05-01T01:15:57.024Z,4.97
2023-05-01T01:18:48.253Z,7.18
2023-05-01T01:21:29.549Z,6.68
2023-05-01T01:24:33.967Z,6.32
2023-05-01T01:27:25.953Z,5.18
2023-05-01T01:30:39.435Z,5.93
2023-05-01T01:33:49.825Z,8.20
2023-05-01T01:36:43.004Z,5.40
2023-05-01T01:39:23.501Z,5.75
2023-05-01T01:41:54.622Z,5.78
2023-05-01T01:44:34.236Z,4.65
2023-05-01T01:47:06.515Z,5.05
2023-05-01T01:49:40.419Z,4.88
2023-05-01T01:52:10.925Z,6.53
2023-05-01T01:54:48.615Z,7.55
2023-05-01T01:57:19.431Z,6.95
2023-05-01T01:59:49.895Z,6.72
2023-05-01T02:02:21.115Z,6.22
2023-05-01T02:04:53.864Z,4.03
2023-05-01T02:07:23.549Z,7.78
2023-05-01T02:09:54.921Z,6.38
2023-05-01T02:12:26.694Z,7.57
2023-05-01T02:14:55.036Z,5.57
2023-05-01T02:17:22.638Z,8.30
2023-05-01T02:19:53.328Z,5.82
2023-05-01T02:22:22.643Z,7.13
2023-05-01T02:24:50.223Z,5.65
2023-05-01T02:27:23.385Z,7.82
2023-05-01T02:29:53.991Z,9.60
2023-05-01T02:32:21.121Z,6.53
2023-05-01T02:34:49.138Z,7.32
2023-05-01T02:37:17.173Z,6.75
2023-05-01T02:39:45.912Z,6.30
2023-05-01T02:42:16.545Z,8.63
2023-05-01T02:44:53.796Z,6.03
2023-05-01T02:47:23.879Z,6.45
2023-05-01T02:49:53.030Z,7.32
2023-05-01T02:52:23.004Z,6.22
2023-05-01T02:54:57.262Z,5.85
2023-05-01T02:57:24.573Z,9.05
2023-05-01T02:59:51.638Z,6.03
2023-05-01T03:02:18.869Z,7.35
2023-05-01T03:04:46.019Z,6.43
2023-05-01T03:07:13.750Z,7.03
2023-05-01T03:09:40.722Z,8.65
2023-05-01T03:12:07.928Z,6.45
2023-05-01T03:14:34.990Z,9.00
2023-05-01T03:17:02.112Z,7.75
2023-05-01T03:19:29.193Z,9.85
2023-05-01T03:21:56.154Z,9.20
2023-05-01T03:24:24.327Z,5.82
2023-05-01T03:26:51.279Z,6.53
2023-05-01T03:29:18.279Z,5.65
2023-05-01T03:31:45.272Z,4.30
2023-05-01T03:34:12.598Z,5.95
2023-05-01T03:36:39.634Z,9.60
2023-05-01T03:39:08.561Z,6.20
2023-05-01T03:41:54.190Z,6.75
2023-05-01T03:44:26.817Z,5.25
2023-05-01T03:46:54.173Z,11.13
2023-05-01T03:49:25.836Z,5.97
2023-05-01T03:51:52.813Z,6.97
2023-05-01T03:54:19.793Z,7.68
2023-05-01T03:56:58.594Z,5.25
2023-05-01T03:59:25.823Z,5.22
2023-05-01T04:01:53.015Z,5.68
2023-05-01T04:04:21.137Z,4.50
2023-05-01T04:06:55.410Z,6.32
2023-05-01T04:09:22.465Z,6.03
2023-05-01T04:11:49.456Z,7.28
2023-05-01T04:14:16.816Z,5.63
2023-05-01T04:16:43.867Z,7.85
2023-05-01T04:19:10.779Z,6.55
2023-05-01T04:21:42.499Z,6.35
2023-05-01T04:24:09.447Z,7.57
2023-05-01T04:26:36.582Z,7.95
2023-05-01T04:29:03.648Z,5.63
2023-05-01T04:31:32.874Z,5.85
2023-05-01T04:33:59.859Z,6.43
2023-05-01T04:36:26.866Z,8.07
2023-05-01T04:38:53.812Z,7.57
2023-05-01T04:41:21.556Z,7.57
2023-05-01T04:43:48.660Z,8.45
2023-05-01T04:46:18.684Z,6.53
2023-05-01T04:48:45.711Z,6.50
2023-05-01T04:51:12.758Z,7.88
2023-05-01T04:53:40.049Z,5.90
2023-05-01T04:56:16.506Z,9.60
2023-05-01T04:58:44.767Z,8.57
2023-05-01T05:01:16.168Z,8.13
2023-05-01T05:03:43.512Z,7.82
2023-05-01T05:06:12.276Z,7.97
2023-05-01T05:08:39.355Z,8.05
2023-05-01T05:11:10.980Z,8.00
2023-05-01T05:14:03.980Z,8.02
2023-05-01T05:16:31.135Z,7.35
2023-05-01T05:18:58.280Z,6.80
2023-05-01T05:21:27.842Z,8.23
2023-05-01T05:23:57.506Z,7.55
2023-05-01T05:26:27.101Z,5.95
2023-05-01T05:28:56.973Z,7.72
2023-05-01T05:31:24.131Z,6.88
2023-05-01T05:33:51.136Z,6.93
2023-05-01T05:36:18.599Z,7.00
2023-05-01T05:38:45.823Z,8.52
2023-05-01T05:41:17.647Z,9.10
2023-05-01T05:43:45.216Z,6.72
2023-05-01T05:46:12.700Z,8.65
2023-05-01T05:48:41.497Z,6.68
2023-05-01T05:51:08.744Z,7.13
2023-05-01T05:53:35.843Z,6.30
2023-05-01T05:56:02.909Z,8.02
2023-05-01T05:58:31.426Z,8.13
2023-05-01T06:00:58.773Z,7.57
2023-05-01T06:03:27.297Z,8.13
2023-05-01T06:05:58.225Z,10.40
2023-05-01T06:08:25.302Z,9.50
2023-05-01T06:10:52.402Z,10.23
2023-05-01T06:13:19.437Z,6.95
2023-05-01T06:15:49.114Z,11.23
2023-05-01T06:18:16.793Z,14.52
2023-05-01T06:20:44.925Z,9.48
2023-05-01T06:23:13.697Z,8.40
2023-05-01T06:26:00.290Z,6.55
2023-05-01T06:28:27.273Z,5.78
2023-05-01T06:30:55.129Z,7.75
2023-05-01T06:33:23.393Z,8.32
2023-05-01T06:36:02.394Z,8.10
2023-05-01T06:38:29.360Z,7.95
2023-05-01T06:40:56.715Z,6.85
2023-05-01T06:43:23.816Z,9.95
2023-05-01T06:45:53.457Z,8.07
2023-05-01T06:48:20.694Z,8.25
2023-05-01T06:50:47.712Z,10.15
2023-05-01T06:53:14.656Z,11.68
2023-05-01T06:55:41.635Z,6.55
2023-05-01T06:58:21.976Z,7.13
2023-05-01T07:00:51.137Z,8.48
2023-05-01T07:03:18.294Z,8.52
2023-05-01T07:05:45.307Z,7.43
2023-05-01T07:08:12.321Z,8.88
2023-05-01T07:10:41.773Z,12.63
2023-05-01T07:13:09.885Z,8.18
2023-05-01T07:15:37.320Z,10.18
2023-05-01T07:18:08.308Z,7.80
2023-05-01T07:20:35.592Z,7.07
2023-05-01T07:23:03.143Z,5.97
2023-05-01T07:25:31.444Z,6.82
2023-05-01T07:28:00.784Z,8.07
2023-05-01T07:30:30.406Z,7.05
2023-05-01T07:32:58.043Z,6.63
2023-05-01T07:35:25.489Z,6.68
2023-05-01T07:37:52.803Z,8.45
2023-05-01T07:40:19.743Z,8.23
2023-05-01T07:42:46.913Z,8.82
2023-05-01T07:45:13.981Z,5.70
2023-05-01T07:47:41.038Z,6.50
2023-05-01T07:50:12.751Z,8.07
2023-05-01T07:52:39.755Z,6.07
2023-05-01T07:55:07.764Z,6.78
2023-05-01T07:57:36.205Z,12.68
2023-05-01T08:00:03.641Z,7.35
2023-05-01T08:02:41.290Z,8.68
2023-05-01T08:05:09.001Z,8.48
2023-05-01T08:07:36.310Z,7.85
2023-05-01T08:10:03.642Z,7.57
2023-05-01T08:12:31.465Z,9.00
2023-05-01T08:14:58.408Z,8.82
2023-05-01T08:17:25.412Z,12.30
2023-05-01T08:19:56.619Z,6.93
2023-05-01T08:22:24.211Z,11.02
2023-05-01T08:24:51.661Z,8.25
2023-05-01T08:27:18.807Z,6.68
2023-05-01T08:29:45.854Z,20.00
2023-05-01T08:32:12.838Z,9.05
2023-05-01T08:34:39.824Z,6.45
2023-05-01T08:37:06.810Z,6.45
2023-05-01T08:39:33.808Z,7.15
2023-05-01T08:42:01.238Z,20.23
2023-05-01T08:44:28.855Z,8.77
2023-05-01T08:47:17.798Z,11.10
2023-05-01T08:49:46.721Z,15.98
2023-05-01T08:52:15.332Z,6.07
2023-05-01T08:54:45.229Z,8.07
2023-05-01T08:57:12.973Z,16.40
2023-05-01T08:59:40.927Z,8.57
2023-05-01T09:02:10.151Z,8.27
2023-05-01T09:04:41.082Z,6.13
2023-05-01T09:07:10.078Z,9.23
2023-05-01T09:09:37.306Z,6.00
2023-05-01T09:12:27.449Z,8.52
2023-05-01T09:14:56.795Z,19.27
2023-05-01T09:17:24.853Z,24.27
2023-05-01T09:19:53.203Z,21.02
2023-05-01T09:22:21.256Z,16.00
2023-05-01T09:24:48.485Z,19.08
2023-05-01T09:27:16.222Z,8.80
2023-05-01T09:29:46.622Z,20.83
2023-05-01T09:32:17.365Z,15.98
2023-05-01T09:34:44.864Z,10.63
2023-05-01T09:37:33.249Z,8.20
2023-05-01T09:40:08.847Z,6.25
2023-05-01T09:42:37.521Z,7.07
2023-05-01T09:45:16.882Z,8.25
2023-05-01T09:47:48.005Z,23.50
2023-05-01T09:50:34.388Z,18.40
2023-05-01T09:53:05.136Z,18.55
2023-05-01T09:55:33.640Z,23.10
2023-05-01T09:58:01.014Z,23.67
2023-05-01T10:00:27.980Z,5.57
2023-05-01T10:02:55.129Z,3.63
2023-05-01T10:05:23.199Z,8.45
2023-05-01T10:07:59.793Z,5.47
2023-05-01T10:10:27.693Z,6.05
2023-05-01T10:12:55.483Z,14.13
2023-05-01T10:15:26.069Z,9.00
2023-05-01T10:17:54.778Z,7.65
2023-05-01T10:20:22.367Z,10.95
2023-05-01T10:22:49.850Z,7.45
2023-05-01T10:25:18.787Z,6.05
2023-05-01T10:27:46.655Z,15.07
2023-05-01T10:30:17.217Z,8.05
2023-05-01T10:32:44.379Z,11.15
2023-05-01T10:35:20.773Z,9.00
2023-05-01T10:38:02.769Z,7.82
2023-05-01T10:40:38.905Z,7.35
2023-05-01T10:43:31.173Z,11.38
2023-05-01T10:46:07.361Z,9.52
2023-05-01T10:48:40.853Z,5.65
2023-05-01T10:51:12.485Z,5.65
2023-05-01T10:53:44.587Z,7.28
2023-05-01T10:56:30.300Z,5.80
2023-05-01T10:59:06.667Z,8.60
2023-05-01T11:01:42.382Z,5.05
2023-05-01T11:04:28.015Z,6.18
2023-05-01T11:07:11.456Z,9.48
2023-05-01T11:10:01.813Z,9.07
2023-05-01T11:12:47.121Z,5.75
2023-05-01T11:15:33.817Z,16.33
2023-05-01T11:18:03.798Z,5.45
2023-05-01T11:20:36.985Z,4.68
2023-05-01T11:23:03.958Z,4.40
2023-05-01T11:25:31.923Z,8.35
2023-05-01T11:28:02.104Z,21.45
2023-05-01T11:30:40.062Z,11.23
2023-05-01T11:33:10.209Z,5.28
2023-05-01T11:35:38.667Z,3.95
2023-05-01T11:38:05.816Z,4.93
2023-05-01T11:40:34.962Z,9.15
2023-05-01T11:43:08.089Z,6.03
2023-05-01T11:45:37.168Z,7.87
2023-05-01T11:48:05.549Z,7.03
2023-05-01T11:50:37.144Z,6.20
2023-05-01T11:53:18.507Z,9.95
2023-05-01T11:55:45.636Z,6.15
2023-05-01T11:58:13.027Z,7.80
2023-05-01T12:00:43.249Z,9.20
2023-05-01T12:03:15.002Z,8.23
2023-05-01T12:05:45.092Z,7.72
2023-05-01T12:08:19.035Z,10.35
2023-05-01T12:13:25.271Z,11.10
2023-05-01T12:15:54.777Z,9.00
2023-05-01T12:18:22.784Z,23.45
2023-05-01T12:20:56.428Z,17.30
2023-05-01T12:23:39.684Z,24.25
2023-05-01T12:26:23.632Z,14.63
2023-05-01T12:31:27.571Z,6.55
2023-05-01T12:33:58.424Z,17.85
2023-05-01T12:36:30.235Z,11.80
2023-05-01T12:39:07.934Z,16.85
2023-05-01T12:41:46.766Z,25.88
2023-05-01T12:44:23.863Z,17.23
2023-05-01T12:47:07.189Z,11.23
2023-05-01T12:49:40.553Z,21.67
2023-05-01T12:52:09.280Z,13.65
2023-05-01T12:54:39.868Z,23.13
2023-05-01T12:57:14.992Z,11.13
2023-05-01T12:59:47.256Z,17.88
2023-05-01T13:02:17.099Z,16.25
2023-05-01T13:04:45.521Z,12.45
2023-05-01T13:07:18.530Z,14.15
2023-05-01T13:09:58.723Z,21.47
2023-05-01T13:12:28.073Z,11.50
2023-05-01T13:14:55.827Z,13.85
2023-05-01T13:17:28.671Z,12.60
2023-05-01T13:20:02.050Z,9.73
2023-05-01T13:22:39.175Z,17.20
2023-05-01T13:25:17.993Z,12.73
2023-05-01T13:27:53.366Z,9.63
2023-05-01T13:30:31.756Z,8.82
2023-05-01T13:32:58.778Z,6.65
2023-05-01T13:35:27.131Z,5.88
2023-05-01T13:37:55.032Z,3.38
2023-05-01T13:40:26.036Z,6.43
2023-05-01T13:42:54.013Z,6.18
2023-05-01T13:45:21.406Z,7.65
2023-05-01T13:47:51.895Z,5.60
2023-05-01T13:50:19.229Z,6.30
2023-05-01T13:52:46.362Z,13.60
2023-05-01T13:55:14.644Z,6.25
2023-05-01T13:57:43.151Z,4.00
2023-05-01T14:00:19.182Z,6.78
2023-05-01T14:02:49.106Z,5.03
2023-05-01T14:05:24.642Z,11.85
2023-05-01T14:07:55.533Z,3.60
2023-05-01T14:10:27.605Z,14.25
2023-05-01T14:12:58.912Z,10.88
2023-05-01T14:15:26.883Z,12.00
2023-05-01T14:17:53.929Z,28.50
2023-05-01T14:20:21.142Z,6.72
2023-05-01T14:22:51.810Z,10.82
2023-05-01T14:25:28.597Z,6.20
2023-05-01T14:27:56.737Z,18.52
2023-05-01T14:30:37.496Z,11.27
2023-05-01T14:33:13.318Z,10.27
2023-05-01T14:35:49.856Z,17.05
2023-05-01T14:38:19.285Z,16.92
2023-05-01T14:40:48.071Z,11.70
2023-05-01T14:43:19.172Z,8.27
2023-05-01T14:45:46.789Z,10.57
2023-05-01T14:48:23.271Z,7.20
2023-05-01T14:50:51.914Z,9.52
2023-05-01T14:53:18.923Z,8.40
2023-05-01T14:55:50.993Z,7.68
2023-05-01T14:58:17.960Z,5.90
2023-05-01T15:00:44.924Z,6.82
2023-05-01T15:03:12.077Z,11.00
2023-05-01T15:05:41.682Z,4.82
2023-05-01T15:08:09.357Z,3.47
2023-05-01T15:10:37.227Z,6.63
2023-05-01T15:13:04.452Z,5.70
2023-05-01T15:15:31.491Z,4.82
2023-05-01T15:17:58.458Z,4.78
2023-05-01T15:20:25.562Z,9.68
2023-05-01T15:22:52.599Z,4.68
2023-05-01T15:25:19.466Z,5.78
2023-05-01T15:27:46.465Z,6.78
2023-05-01T15:30:15.027Z,6.03
2023-05-01T15:32:42.787Z,5.65
2023-05-01T15:35:10.155Z,9.90
2023-05-01T15:37:37.045Z,6.60
2023-05-01T15:40:05.498Z,10.70
2023-05-01T15:42:32.450Z,4.93
2023-05-01T15:45:00.263Z,5.40
2023-05-01T15:47:28.377Z,8.50
2023-05-01T15:49:55.456Z,7.13
2023-05-01T15:52:22.458Z,6.85
2023-05-01T15:54:49.421Z,7.15
2023-05-01T15:57:18.887Z,8.65
2023-05-01T15:59:45.946Z,8.80
2023-05-01T16:02:12.970Z,6.55
2023-05-01T16:04:40.113Z,8.18
2023-05-01T16:07:08.829Z,8.00
2023-05-01T16:09:36.074Z,5.75
2023-05-01T16:12:03.514Z,7.50
2023-05-01T16:14:31.179Z,6.65
2023-05-01T16:16:58.277Z,7.88
2023-05-01T16:19:28.923Z,5.85
2023-05-01T16:21:56.014Z,6.22
2023-05-01T16:24:23.034Z,5.93
2023-05-01T16:26:50.053Z,3.92
2023-05-01T16:29:18.440Z,6.80
2023-05-01T16:31:48.365Z,5.05
2023-05-01T16:34:20.937Z,7.63
2023-05-01T16:36:47.965Z,5.43
2023-05-01T16:39:19.140Z,8.25
2023-05-01T16:41:54.859Z,6.78
2023-05-01T16:44:22.747Z,5.95
2023-05-01T16:46:55.782Z,9.15
2023-05-01T16:49:27.114Z,10.48
2023-05-01T16:51:56.976Z,4.78
2023-05-01T16:54:35.872Z,8.02
2023-05-01T16:57:03.514Z,5.88
2023-05-01T16:59:31.154Z,5.50
2023-05-01T17:01:58.212Z,5.47
2023-05-01T17:04:25.739Z,8.05
2023-05-01T17:06:52.993Z,5.45
2023-05-01T17:09:20.629Z,8.63
2023-05-01T17:11:58.986Z,5.40
2023-05-01T17:14:28.966Z,6.10
2023-05-01T17:16:59.288Z,8.95
2023-05-01T17:19:26.611Z,8.38
2023-05-01T17:21:53.651Z,7.22
2023-05-01T17:24:21.036Z,6.20
2023-05-01T17:26:47.984Z,7.82
2023-05-01T17:29:15.267Z,10.00
2023-05-01T17:31:42.241Z,7.53
2023-05-01T17:34:09.239Z,8.80
2023-05-01T17:36:36.670Z,7.38
2023-05-01T17:39:04.153Z,7.57
2023-05-01T17:41:31.202Z,9.68
2023-05-01T17:43:58.113Z,8.18
2023-05-01T17:46:25.360Z,28.77
2023-05-01T17:48:52.528Z,10.52
2023-05-01T17:51:19.620Z,7.82
2023-05-01T17:53:46.625Z,6.38
2023-05-01T17:56:13.680Z,6.57
2023-05-01T17:58:41.221Z,7.07
2023-05-01T18:01:08.527Z,6.88
2023-05-01T18:03:35.675Z,6.32
2023-05-01T18:06:02.950Z,5.45
2023-05-01T18:08:30.269Z,9.32
2023-05-01T18:10:57.317Z,7.10
2023-05-01T18:13:28.089Z,9.38
2023-05-01T18:15:56.288Z,8.20
2023-05-01T18:18:23.730Z,6.45
2023-05-01T18:20:50.780Z,6.22
2023-05-01T18:23:18.982Z,5.72
2023-05-01T18:25:46.374Z,7.15
2023-05-01T18:28:16.439Z,8.57
2023-05-01T18:30:43.769Z,7.65
2023-05-01T18:33:12.076Z,7.25
2023-05-01T18:35:42.505Z,9.30
2023-05-01T18:38:10.731Z,8.93
2023-05-01T18:40:38.020Z,8.02
2023-05-01T18:43:05.146Z,8.10
2023-05-01T18:45:32.202Z,8.32
2023-05-01T18:48:00.700Z,9.02
2023-05-01T18:50:28.992Z,8.77
2023-05-01T18:52:56.165Z,13.40
2023-05-01T18:55:23.198Z,9.25
2023-05-01T18:57:50.395Z,11.43
2023-05-01T19:00:17.885Z,8.40
2023-05-01T19:02:51.166Z,11.18
2023-05-01T19:05:18.575Z,11.47
2023-05-01T19:07:45.621Z,10.85
2023-05-01T19:10:12.560Z,10.18
2023-05-01T19:12:39.575Z,8.88
2023-05-01T19:15:07.345Z,10.68
2023-05-01T19:17:34.347Z,9.35
2023-05-01T19:20:02.590Z,9.48
2023-05-01T19:22:29.600Z,8.95
2023-05-01T19:24:56.538Z,11.43
2023-05-01T19:27:25.380Z,10.40
2023-05-01T19:29:54.194Z,10.02
2023-05-01T19:32:22.954Z,11.57
2023-05-01T19:34:50.253Z,12.45
2023-05-01T19:37:17.500Z,11.27
2023-05-01T19:39:44.566Z,11.95
2023-05-01T19:42:11.911Z,10.70
2023-05-01T19:44:38.946Z,10.90
2023-05-01T19:47:06.318Z,11.88
2023-05-01T19:49:33.253Z,13.35
2023-05-01T19:52:00.526Z,13.52
2023-05-01T19:54:28.473Z,13.68
2023-05-01T19:56:56.069Z,13.05
2023-05-01T19:59:23.360Z,16.55
2023-05-01T20:01:50.618Z,14.13
2023-05-01T20:04:17.840Z,14.10
2023-05-01T20:06:44.945Z,15.13
2023-05-01T20:09:11.929Z,14.65
2023-05-01T20:11:38.888Z,14.35
2023-05-01T20:14:05.884Z,18.52
2023-05-01T20:16:33.065Z,14.57
2023-05-01T20:19:00.336Z,18.88
2023-05-01T20:21:27.374Z,18.25
2023-05-01T20:23:55.036Z,18.15
2023-05-01T20:26:22.008Z,17.17
2023-05-01T20:28:50.960Z,19.90
2023-05-01T20:31:17.969Z,18.23
2023-05-01T20:33:44.995Z,19.13
2023-05-01T20:36:12.556Z,20.73
2023-05-01T20:38:46.349Z,21.23
2023-05-01T20:41:14.372Z,21.00
2023-05-01T20:43:41.443Z,23.27
2023-05-01T20:46:08.433Z,24.63
2023-05-01T20:48:35.487Z,24.50
2023-05-01T20:51:02.508Z,27.55
2023-05-01T20:53:29.447Z,25.92
2023-05-01T20:55:56.407Z,25.70
2023-05-01T20:58:23.417Z,27.55
2023-05-01T21:00:55.275Z,27.08
2023-05-01T21:03:22.487Z,29.10
2023-05-01T21:05:49.476Z,30.25
2023-05-01T21:08:16.617Z,28.83
2023-05-01T21:10:43.600Z,30.75
2023-05-01T21:13:10.767Z,27.65
2023-05-01T21:15:41.530Z,29.60
2023-05-01T21:18:12.462Z,30.67
2023-05-01T21:20:41.281Z,30.65
2023-05-01T21:23:08.380Z,31.75
2023-05-01T21:25:35.332Z,29.15
2023-05-01T21:28:05.365Z,31.40
2023-05-01T21:30:35.494Z,29.48
2023-05-01T21:33:06.224Z,32.05
2023-05-01T21:35:34.107Z,34.58
2023-05-01T21:38:01.126Z,30.98
2023-05-01T21:40:28.188Z,32.78
2023-05-01T21:42:56.271Z,34.60
2023-05-01T21:45:24.540Z,36.50
2023-05-01T21:47:51.916Z,33.28
2023-05-01T21:50:21.453Z,34.00
2023-05-01T21:52:50.002Z,33.13
2023-05-01T21:55:25.663Z,35.00
2023-05-01T21:57:55.607Z,32.17
2023-05-01T22:00:22.686Z,36.20
2023-05-01T22:02:51.454Z,38.30
2023-05-01T22:05:22.828Z,36.33
2023-05-01T22:07:54.114Z,37.40
2023-05-01T22:10:21.329Z,35.90
2023-05-01T22:12:51.737Z,37.88
2023-05-01T22:15:19.304Z,37.20
2023-05-01T22:17:46.486Z,40.28
2023-05-01T22:20:13.607Z,42.83
2023-05-01T22:22:42.847Z,43.80
2023-05-01T22:25:12.012Z,43.88
2023-05-01T22:27:39.201Z,43.67
2023-05-01T22:30:07.239Z,44.17
2023-05-01T22:32:34.376Z,45.22
2023-05-01T22:35:01.456Z,47.45
2023-05-01T22:37:28.479Z,50.28
2023-05-01T22:39:55.627Z,48.13
2023-05-01T22:42:23.288Z,47.97
2023-05-01T22:44:50.309Z,46.72
2023-05-01T22:47:17.513Z,47.08
2023-05-01T22:49:44.895Z,49.30
2023-05-01T22:52:11.871Z,51.88
2023-05-01T22:54:38.918Z,50.13
2023-05-01T22:57:06.058Z,48.67
2023-05-01T22:59:33.108Z,49.72
2023-05-01T23:02:03.967Z,47.13
2023-05-01T23:04:32.199Z,50.28
2023-05-01T23:06:59.344Z,50.47
2023-05-01T23:09:26.528Z,47.45
2023-05-01T23:11:53.656Z,48.97
2023-05-01T23:14:20.759Z,46.80
2023-05-01T23:16:47.898Z,48.55
2023-05-01T23:19:24.397Z,52.40
2023-05-01T23:22:08.523Z,46.80
2023-05-01T23:24:49.814Z,45.88
2023-05-01T23:27:19.804Z,46.20
2023-05-01T23:29:57.156Z,47.65
2023-05-01T23:32:30.741Z,48.08
2023-05-01T23:35:07.639Z,47.17
2023-05-01T23:37:34.589Z,46.72
2023-05-01T23:40:02.084Z,43.33
2023-05-01T23:42:29.725Z,41.75
2023-05-01T23:44:57.200Z,42.97
2023-05-01T23:47:24.403Z,40.05
2023-05-01T23:49:51.847Z,41.40
2023-05-01T23:52:18.932Z,41.40
2023-05-01T23:54:45.985Z,38.58
2023-05-01T23:57:12.937Z,39.13
2023-05-01T23:59:39.840Z,37.80
